sensor_id;sensor_type;location;lat;lon;timestamp;temperature;humidity
25342;DHT22;13298;48.792;9.154;2023-04-07T00:00:42;5.90;99.90
25342;DHT22;13298;48.792;9.154;2023-04-07T00:03:08;5.90;99.90
25342;DHT22;13298;48.792;9.154;2023-04-07T00:05:33;5.90;99.90
25342;DHT22;13298;48.792;9.154;2023-04-07T00:07:59;5.90;99.90
25342;DHT22;13298;48.792;9.154;2023-04-07T00:10:25;5.90;99.90
25342;DHT22;13298;48.792;9.154;2023-04-07T00:12:51;5.90;99.90
25342;DHT22;13298;48.792;9.154;2023-04-07T00:15:17;6.00;99.90
25342;DHT22;13298;48.792;9.154;2023-04-07T00:17:42;6.00;99.90
25342;DHT22;13298;48.792;9.154;2023-04-07T00:20:08;6.00;99.90
25342;DHT22;13298;48.792;9.154;2023-04-07T00:22:34;6.00;99.90
25342;DHT22;13298;48.792;9.154;2023-04-07T00:25:00;6.00;99.90
25342;DHT22;13298;48.792;9.154;2023-04-07T00:27:25;6.00;99.90
25342;DHT22;13298;48.792;9.154;2023-04-07T00:29:51;6.00;99.90
25342;DHT22;13298;48.792;9.154;2023-04-07T00:32:20;6.00;99.90
25342;DHT22;13298;48.792;9.154;2023-04-07T00:34:46;6.00;99.90
25342;DHT22;13298;48.792;9.154;2023-04-07T00:37:11;6.00;99.90
25342;DHT22;13298;48.792;9.154;2023-04-07T00:39:37;6.00;99.90
25342;DHT22;13298;48.792;9.154;2023-04-07T00:42:03;5.90;99.90
25342;DHT22;13298;48.792;9.154;2023-04-07T00:44:31;6.00;99.90
25342;DHT22;13298;48.792;9.154;2023-04-07T00:46:56;6.00;99.90
25342;DHT22;13298;48.792;9.154;2023-04-07T00:49:23;5.90;99.90
25342;DHT22;13298;48.792;9.154;2023-04-07T00:51:49;6.00;99.90
25342;DHT22;13298;48.792;9.154;2023-04-07T00:54:16;6.00;99.90
25342;DHT22;13298;48.792;9.154;2023-04-07T00:56:42;6.00;99.90
25342;DHT22;13298;48.792;9.154;2023-04-07T00:59:08;6.00;99.90
25342;DHT22;13298;48.792;9.154;2023-04-07T01:01:39;6.00;99.90
25342;DHT22;13298;48.792;9.154;2023-04-07T01:04:14;6.00;99.90
25342;DHT22;13298;48.792;9.154;2023-04-07T01:06:49;6.00;99.90
25342;DHT22;13298;48.792;9.154;2023-04-07T01:09:24;6.00;99.90
25342;DHT22;13298;48.792;9.154;2023-04-07T01:14:33;6.00;99.90
25342;DHT22;13298;48.792;9.154;2023-04-07T01:17:06;6.00;99.90
25342;DHT22;13298;48.792;9.154;2023-04-07T01:19:52;6.00;99.90
25342;DHT22;13298;48.792;9.154;2023-04-07T01:22:27;5.90;99.90
25342;DHT22;13298;48.792;9.154;2023-04-07T01:25:28;5.90;99.90
25342;DHT22;13298;48.792;9.154;2023-04-07T01:30:29;5.90;99.90
25342;DHT22;13298;48.792;9.154;2023-04-07T01:32:58;5.90;99.90
25342;DHT22;13298;48.792;9.154;2023-04-07T01:35:28;5.90;99.90
25342;DHT22;13298;48.792;9.154;2023-04-07T01:37:55;5.90;99.90
25342;DHT22;13298;48.792;9.154;2023-04-07T01:40:23;5.80;99.90
25342;DHT22;13298;48.792;9.154;2023-04-07T01:42:50;5.80;99.90
25342;DHT22;13298;48.792;9.154;2023-04-07T01:45:17;5.90;99.90
25342;DHT22;13298;48.792;9.154;2023-04-07T01:47:44;5.90;99.90
25342;DHT22;13298;48.792;9.154;2023-04-07T01:50:11;5.80;99.90
25342;DHT22;13298;48.792;9.154;2023-04-07T01:52:38;5.80;99.90
25342;DHT22;13298;48.792;9.154;2023-04-07T01:55:05;5.80;99.90
25342;DHT22;13298;48.792;9.154;2023-04-07T01:57:32;5.80;99.90
25342;DHT22;13298;48.792;9.154;2023-04-07T01:59:58;5.80;99.90
25342;DHT22;13298;48.792;9.154;2023-04-07T02:02:24;5.80;99.90
25342;DHT22;13298;48.792;9.154;2023-04-07T02:04:58;5.80;99.90
25342;DHT22;13298;48.792;9.154;2023-04-07T02:07:37;5.80;99.90
25342;DHT22;13298;48.792;9.154;2023-04-07T02:10:09;5.80;99.90
25342;DHT22;13298;48.792;9.154;2023-04-07T02:12:37;5.80;99.90
25342;DHT22;13298;48.792;9.154;2023-04-07T02:15:06;5.80;99.90
25342;DHT22;13298;48.792;9.154;2023-04-07T02:17:38;5.90;99.90
25342;DHT22;13298;48.792;9.154;2023-04-07T02:20:07;6.00;99.90
25342;DHT22;13298;48.792;9.154;2023-04-07T02:22:35;6.00;99.90
25342;DHT22;13298;48.792;9.154;2023-04-07T02:25:02;6.00;99.90
25342;DHT22;13298;48.792;9.154;2023-04-07T02:27:27;6.00;99.90
25342;DHT22;13298;48.792;9.154;2023-04-07T02:29:53;6.00;99.90
25342;DHT22;13298;48.792;9.154;2023-04-07T02:32:19;6.00;99.90
25342;DHT22;13298;48.792;9.154;2023-04-07T02:34:45;6.00;99.90
25342;DHT22;13298;48.792;9.154;2023-04-07T02:37:10;6.10;99.90
25342;DHT22;13298;48.792;9.154;2023-04-07T02:39:36;6.00;99.90
25342;DHT22;13298;48.792;9.154;2023-04-07T02:42:02;6.10;99.90
25342;DHT22;13298;48.792;9.154;2023-04-07T02:44:27;6.10;99.90
25342;DHT22;13298;48.792;9.154;2023-04-07T02:46:53;6.10;99.90
25342;DHT22;13298;48.792;9.154;2023-04-07T02:49:19;6.10;99.90
25342;DHT22;13298;48.792;9.154;2023-04-07T02:51:44;6.10;99.90
25342;DHT22;13298;48.792;9.154;2023-04-07T02:54:11;6.10;99.90
25342;DHT22;13298;48.792;9.154;2023-04-07T02:56:36;6.20;99.90
25342;DHT22;13298;48.792;9.154;2023-04-07T02:59:02;6.20;99.90
25342;DHT22;13298;48.792;9.154;2023-04-07T03:01:28;6.20;99.90
25342;DHT22;13298;48.792;9.154;2023-04-07T03:03:53;6.20;99.90
25342;DHT22;13298;48.792;9.154;2023-04-07T03:06:19;6.20;99.90
25342;DHT22;13298;48.792;9.154;2023-04-07T03:08:45;6.20;99.90
25342;DHT22;13298;48.792;9.154;2023-04-07T03:11:10;6.20;99.90
25342;DHT22;13298;48.792;9.154;2023-04-07T03:13:36;6.20;99.90
25342;DHT22;13298;48.792;9.154;2023-04-07T03:16:02;6.20;99.90
25342;DHT22;13298;48.792;9.154;2023-04-07T03:18:28;6.20;99.90
25342;DHT22;13298;48.792;9.154;2023-04-07T03:20:53;6.20;99.90
25342;DHT22;13298;48.792;9.154;2023-04-07T03:23:20;6.20;99.90
25342;DHT22;13298;48.792;9.154;2023-04-07T03:25:48;6.30;99.90
25342;DHT22;13298;48.792;9.154;2023-04-07T03:28:13;6.20;99.90
25342;DHT22;13298;48.792;9.154;2023-04-07T03:30:39;6.20;99.90
25342;DHT22;13298;48.792;9.154;2023-04-07T03:33:05;6.20;99.90
25342;DHT22;13298;48.792;9.154;2023-04-07T03:35:31;6.30;99.90
25342;DHT22;13298;48.792;9.154;2023-04-07T03:37:57;6.30;99.90
25342;DHT22;13298;48.792;9.154;2023-04-07T03:40:22;6.30;99.90
25342;DHT22;13298;48.792;9.154;2023-04-07T03:42:48;6.30;99.90
25342;DHT22;13298;48.792;9.154;2023-04-07T03:45:14;6.30;99.90
25342;DHT22;13298;48.792;9.154;2023-04-07T03:47:40;6.20;99.90
25342;DHT22;13298;48.792;9.154;2023-04-07T03:50:06;6.20;99.90
25342;DHT22;13298;48.792;9.154;2023-04-07T03:52:32;6.20;99.90
25342;DHT22;13298;48.792;9.154;2023-04-07T03:54:58;6.20;99.90
25342;DHT22;13298;48.792;9.154;2023-04-07T03:57:24;6.20;99.90
25342;DHT22;13298;48.792;9.154;2023-04-07T03:59:49;6.20;99.90
25342;DHT22;13298;48.792;9.154;2023-04-07T04:02:16;6.20;99.90
25342;DHT22;13298;48.792;9.154;2023-04-07T04:04:42;6.20;99.90
25342;DHT22;13298;48.792;9.154;2023-04-07T04:07:07;6.20;99.90
25342;DHT22;13298;48.792;9.154;2023-04-07T04:09:33;6.20;99.90
25342;DHT22;13298;48.792;9.154;2023-04-07T04:11:59;6.20;99.90
25342;DHT22;13298;48.792;9.154;2023-04-07T04:14:25;6.20;99.90
25342;DHT22;13298;48.792;9.154;2023-04-07T04:16:51;6.10;99.90
25342;DHT22;13298;48.792;9.154;2023-04-07T04:19:16;6.20;99.90
25342;DHT22;13298;48.792;9.154;2023-04-07T04:21:42;6.10;99.90
25342;DHT22;13298;48.792;9.154;2023-04-07T04:24:08;6.10;99.90
25342;DHT22;13298;48.792;9.154;2023-04-07T04:26:33;6.10;99.90
25342;DHT22;13298;48.792;9.154;2023-04-07T04:28:59;6.10;99.90
25342;DHT22;13298;48.792;9.154;2023-04-07T04:31:26;6.00;99.90
25342;DHT22;13298;48.792;9.154;2023-04-07T04:33:52;6.00;99.90
25342;DHT22;13298;48.792;9.154;2023-04-07T04:36:18;6.00;99.90
25342;DHT22;13298;48.792;9.154;2023-04-07T04:38:43;6.00;99.90
25342;DHT22;13298;48.792;9.154;2023-04-07T04:41:09;5.90;99.90
25342;DHT22;13298;48.792;9.154;2023-04-07T04:43:35;5.90;99.90
25342;DHT22;13298;48.792;9.154;2023-04-07T04:46:01;5.90;99.90
25342;DHT22;13298;48.792;9.154;2023-04-07T04:48:26;5.90;99.90
25342;DHT22;13298;48.792;9.154;2023-04-07T04:50:52;5.80;99.90
25342;DHT22;13298;48.792;9.154;2023-04-07T04:53:18;5.80;99.90
25342;DHT22;13298;48.792;9.154;2023-04-07T04:55:43;5.90;99.90
25342;DHT22;13298;48.792;9.154;2023-04-07T04:58:12;5.90;99.90
25342;DHT22;13298;48.792;9.154;2023-04-07T05:00:38;5.90;99.90
25342;DHT22;13298;48.792;9.154;2023-04-07T05:03:03;5.90;99.90
25342;DHT22;13298;48.792;9.154;2023-04-07T05:05:29;5.90;99.90
25342;DHT22;13298;48.792;9.154;2023-04-07T05:07:55;5.90;99.90
25342;DHT22;13298;48.792;9.154;2023-04-07T05:10:20;5.90;99.90
25342;DHT22;13298;48.792;9.154;2023-04-07T05:12:46;5.90;99.90
25342;DHT22;13298;48.792;9.154;2023-04-07T05:15:12;5.90;99.90
25342;DHT22;13298;48.792;9.154;2023-04-07T05:17:39;5.90;99.90
25342;DHT22;13298;48.792;9.154;2023-04-07T05:20:07;5.90;99.90
25342;DHT22;13298;48.792;9.154;2023-04-07T05:22:33;5.90;99.90
25342;DHT22;13298;48.792;9.154;2023-04-07T05:24:59;5.90;99.90
25342;DHT22;13298;48.792;9.154;2023-04-07T05:27:25;5.90;99.90
25342;DHT22;13298;48.792;9.154;2023-04-07T05:29:51;5.90;99.90
25342;DHT22;13298;48.792;9.154;2023-04-07T05:32:17;5.90;99.90
25342;DHT22;13298;48.792;9.154;2023-04-07T05:34:43;6.00;99.90
25342;DHT22;13298;48.792;9.154;2023-04-07T05:37:09;6.00;99.90
25342;DHT22;13298;48.792;9.154;2023-04-07T05:39:35;6.10;99.90
25342;DHT22;13298;48.792;9.154;2023-04-07T05:42:01;6.20;99.90
25342;DHT22;13298;48.792;9.154;2023-04-07T05:44:27;6.20;99.90
25342;DHT22;13298;48.792;9.154;2023-04-07T05:46:52;6.30;99.90
25342;DHT22;13298;48.792;9.154;2023-04-07T05:49:18;6.40;99.90
25342;DHT22;13298;48.792;9.154;2023-04-07T05:51:44;6.40;99.90
25342;DHT22;13298;48.792;9.154;2023-04-07T05:54:10;6.50;99.90
25342;DHT22;13298;48.792;9.154;2023-04-07T05:56:36;6.60;99.90
25342;DHT22;13298;48.792;9.154;2023-04-07T05:59:01;6.70;99.90
25342;DHT22;13298;48.792;9.154;2023-04-07T06:01:28;6.70;99.90
25342;DHT22;13298;48.792;9.154;2023-04-07T06:03:54;6.80;99.90
25342;DHT22;13298;48.792;9.154;2023-04-07T06:06:20;6.90;99.90
25342;DHT22;13298;48.792;9.154;2023-04-07T06:08:45;6.90;99.90
25342;DHT22;13298;48.792;9.154;2023-04-07T06:11:11;6.90;99.90
25342;DHT22;13298;48.792;9.154;2023-04-07T06:13:37;7.00;99.90
25342;DHT22;13298;48.792;9.154;2023-04-07T06:16:03;7.00;99.90
25342;DHT22;13298;48.792;9.154;2023-04-07T06:18:30;7.10;99.90
25342;DHT22;13298;48.792;9.154;2023-04-07T06:20:56;7.10;99.90
25342;DHT22;13298;48.792;9.154;2023-04-07T06:23:22;7.20;99.90
25342;DHT22;13298;48.792;9.154;2023-04-07T06:25:47;7.20;99.90
25342;DHT22;13298;48.792;9.154;2023-04-07T06:28:17;7.20;99.90
25342;DHT22;13298;48.792;9.154;2023-04-07T06:30:43;7.30;99.90
25342;DHT22;13298;48.792;9.154;2023-04-07T06:33:09;7.40;99.90
25342;DHT22;13298;48.792;9.154;2023-04-07T06:35:35;7.50;99.90
25342;DHT22;13298;48.792;9.154;2023-04-07T06:38:01;7.50;99.90
25342;DHT22;13298;48.792;9.154;2023-04-07T06:40:26;7.60;99.90
25342;DHT22;13298;48.792;9.154;2023-04-07T06:42:52;7.70;99.90
25342;DHT22;13298;48.792;9.154;2023-04-07T06:45:19;7.70;99.90
25342;DHT22;13298;48.792;9.154;2023-04-07T06:47:45;7.80;99.90
25342;DHT22;13298;48.792;9.154;2023-04-07T06:50:11;7.90;99.90
25342;DHT22;13298;48.792;9.154;2023-04-07T06:52:37;7.90;99.90
25342;DHT22;13298;48.792;9.154;2023-04-07T06:55:02;8.00;99.90
25342;DHT22;13298;48.792;9.154;2023-04-07T06:57:28;8.00;99.90
25342;DHT22;13298;48.792;9.154;2023-04-07T06:59:54;8.00;99.90
25342;DHT22;13298;48.792;9.154;2023-04-07T07:02:20;8.00;99.90
25342;DHT22;13298;48.792;9.154;2023-04-07T07:04:46;7.90;99.90
25342;DHT22;13298;48.792;9.154;2023-04-07T07:07:11;8.00;99.90
25342;DHT22;13298;48.792;9.154;2023-04-07T07:09:37;7.90;99.90
25342;DHT22;13298;48.792;9.154;2023-04-07T07:12:03;8.00;99.90
25342;DHT22;13298;48.792;9.154;2023-04-07T07:14:30;8.00;99.90
25342;DHT22;13298;48.792;9.154;2023-04-07T07:16:56;8.00;99.90
25342;DHT22;13298;48.792;9.154;2023-04-07T07:19:21;7.90;99.90
25342;DHT22;13298;48.792;9.154;2023-04-07T07:21:47;7.90;99.90
25342;DHT22;13298;48.792;9.154;2023-04-07T07:24:13;7.90;99.90
25342;DHT22;13298;48.792;9.154;2023-04-07T07:26:38;7.90;99.90
25342;DHT22;13298;48.792;9.154;2023-04-07T07:29:05;7.90;99.90
25342;DHT22;13298;48.792;9.154;2023-04-07T07:31:31;7.90;99.90
25342;DHT22;13298;48.792;9.154;2023-04-07T07:33:57;7.80;99.90
25342;DHT22;13298;48.792;9.154;2023-04-07T07:36:23;7.80;99.90
25342;DHT22;13298;48.792;9.154;2023-04-07T07:38:49;7.80;99.90
25342;DHT22;13298;48.792;9.154;2023-04-07T07:41:15;7.80;99.90
25342;DHT22;13298;48.792;9.154;2023-04-07T07:43:41;7.80;99.90
25342;DHT22;13298;48.792;9.154;2023-04-07T07:46:07;7.80;99.90
25342;DHT22;13298;48.792;9.154;2023-04-07T07:48:33;7.70;99.90
25342;DHT22;13298;48.792;9.154;2023-04-07T07:50:58;7.70;99.90
25342;DHT22;13298;48.792;9.154;2023-04-07T07:53:25;7.70;99.90
25342;DHT22;13298;48.792;9.154;2023-04-07T07:55:50;7.70;99.90
25342;DHT22;13298;48.792;9.154;2023-04-07T07:58:16;7.80;99.90
25342;DHT22;13298;48.792;9.154;2023-04-07T08:00:42;7.90;99.90
25342;DHT22;13298;48.792;9.154;2023-04-07T08:03:07;8.10;99.90
25342;DHT22;13298;48.792;9.154;2023-04-07T08:05:33;8.20;99.90
25342;DHT22;13298;48.792;9.154;2023-04-07T08:07:59;8.40;99.90
25342;DHT22;13298;48.792;9.154;2023-04-07T08:10:24;8.70;99.90
25342;DHT22;13298;48.792;9.154;2023-04-07T08:12:50;9.20;99.90
25342;DHT22;13298;48.792;9.154;2023-04-07T08:15:16;9.60;99.90
25342;DHT22;13298;48.792;9.154;2023-04-07T08:17:42;9.90;99.90
25342;DHT22;13298;48.792;9.154;2023-04-07T08:20:08;10.30;99.90
25342;DHT22;13298;48.792;9.154;2023-04-07T08:22:35;10.70;99.90
25342;DHT22;13298;48.792;9.154;2023-04-07T08:25:01;11.00;99.90
25342;DHT22;13298;48.792;9.154;2023-04-07T08:27:27;11.20;99.90
25342;DHT22;13298;48.792;9.154;2023-04-07T08:30:04;11.30;99.90
25342;DHT22;13298;48.792;9.154;2023-04-07T08:32:37;11.30;99.90
25342;DHT22;13298;48.792;9.154;2023-04-07T08:35:05;11.20;99.90
25342;DHT22;13298;48.792;9.154;2023-04-07T08:37:31;11.30;99.90
25342;DHT22;13298;48.792;9.154;2023-04-07T08:39:57;11.40;99.90
25342;DHT22;13298;48.792;9.154;2023-04-07T08:42:27;11.30;99.90
25342;DHT22;13298;48.792;9.154;2023-04-07T08:44:56;11.30;99.90
25342;DHT22;13298;48.792;9.154;2023-04-07T08:47:24;11.30;99.90
25342;DHT22;13298;48.792;9.154;2023-04-07T08:49:53;11.40;99.90
25342;DHT22;13298;48.792;9.154;2023-04-07T08:52:22;11.40;99.90
25342;DHT22;13298;48.792;9.154;2023-04-07T08:54:59;11.40;99.90
25342;DHT22;13298;48.792;9.154;2023-04-07T08:57:31;11.20;99.90
25342;DHT22;13298;48.792;9.154;2023-04-07T08:59:58;11.00;99.90
25342;DHT22;13298;48.792;9.154;2023-04-07T09:02:37;10.90;99.90
25342;DHT22;13298;48.792;9.154;2023-04-07T09:05:06;10.80;99.90
25342;DHT22;13298;48.792;9.154;2023-04-07T09:07:34;10.90;99.90
25342;DHT22;13298;48.792;9.154;2023-04-07T09:10:01;11.00;99.90
25342;DHT22;13298;48.792;9.154;2023-04-07T09:12:28;11.20;99.90
25342;DHT22;13298;48.792;9.154;2023-04-07T09:14:54;11.40;99.90
25342;DHT22;13298;48.792;9.154;2023-04-07T09:17:20;11.80;99.90
25342;DHT22;13298;48.792;9.154;2023-04-07T09:19:47;12.10;99.90
25342;DHT22;13298;48.792;9.154;2023-04-07T09:22:12;12.20;99.90
25342;DHT22;13298;48.792;9.154;2023-04-07T09:24:40;12.30;99.90
25342;DHT22;13298;48.792;9.154;2023-04-07T09:29:37;12.00;99.90
25342;DHT22;13298;48.792;9.154;2023-04-07T09:32:04;11.90;99.90
25342;DHT22;13298;48.792;9.154;2023-04-07T09:34:35;11.90;99.90
25342;DHT22;13298;48.792;9.154;2023-04-07T09:37:04;11.80;99.90
25342;DHT22;13298;48.792;9.154;2023-04-07T09:39:31;11.90;99.90
25342;DHT22;13298;48.792;9.154;2023-04-07T09:41:57;12.00;99.90
25342;DHT22;13298;48.792;9.154;2023-04-07T09:44:24;12.10;99.90
25342;DHT22;13298;48.792;9.154;2023-04-07T09:46:52;12.30;99.90
25342;DHT22;13298;48.792;9.154;2023-04-07T09:49:24;12.40;99.90
25342;DHT22;13298;48.792;9.154;2023-04-07T09:51:58;12.70;99.90
25342;DHT22;13298;48.792;9.154;2023-04-07T09:56:59;12.80;99.90
25342;DHT22;13298;48.792;9.154;2023-04-07T09:59:27;12.80;99.90
25342;DHT22;13298;48.792;9.154;2023-04-07T10:01:54;12.60;99.90
25342;DHT22;13298;48.792;9.154;2023-04-07T10:04:19;12.50;99.90
25342;DHT22;13298;48.792;9.154;2023-04-07T10:06:46;12.20;99.90
25342;DHT22;13298;48.792;9.154;2023-04-07T10:09:12;12.00;99.90
25342;DHT22;13298;48.792;9.154;2023-04-07T10:11:40;11.90;99.90
25342;DHT22;13298;48.792;9.154;2023-04-07T10:14:08;11.70;99.90
25342;DHT22;13298;48.792;9.154;2023-04-07T10:16:36;11.60;99.90
25342;DHT22;13298;48.792;9.154;2023-04-07T10:19:02;11.60;99.90
25342;DHT22;13298;48.792;9.154;2023-04-07T10:21:28;11.60;99.90
25342;DHT22;13298;48.792;9.154;2023-04-07T10:24:04;11.80;99.90
25342;DHT22;13298;48.792;9.154;2023-04-07T10:26:47;11.90;99.90
25342;DHT22;13298;48.792;9.154;2023-04-07T10:29:17;12.10;99.90
25342;DHT22;13298;48.792;9.154;2023-04-07T10:31:44;12.20;99.90
25342;DHT22;13298;48.792;9.154;2023-04-07T10:34:11;12.30;99.90
25342;DHT22;13298;48.792;9.154;2023-04-07T10:39:39;12.40;99.90
25342;DHT22;13298;48.792;9.154;2023-04-07T10:42:05;12.30;99.90
25342;DHT22;13298;48.792;9.154;2023-04-07T10:47:06;12.40;99.90
25342;DHT22;13298;48.792;9.154;2023-04-07T10:49:33;12.60;99.90
25342;DHT22;13298;48.792;9.154;2023-04-07T10:54:38;13.10;99.90
25342;DHT22;13298;48.792;9.154;2023-04-07T10:57:11;13.20;99.90
25342;DHT22;13298;48.792;9.154;2023-04-07T10:59:40;13.30;99.90
25342;DHT22;13298;48.792;9.154;2023-04-07T11:04:37;13.40;99.90
25342;DHT22;13298;48.792;9.154;2023-04-07T11:07:03;13.40;99.90
25342;DHT22;13298;48.792;9.154;2023-04-07T11:09:29;13.30;99.90
25342;DHT22;13298;48.792;9.154;2023-04-07T11:11:55;13.10;99.90
25342;DHT22;13298;48.792;9.154;2023-04-07T11:14:31;12.90;99.90
25342;DHT22;13298;48.792;9.154;2023-04-07T11:16:59;12.60;99.90
25342;DHT22;13298;48.792;9.154;2023-04-07T11:19:26;12.40;99.90
25342;DHT22;13298;48.792;9.154;2023-04-07T11:22:15;12.20;99.90
25342;DHT22;13298;48.792;9.154;2023-04-07T11:24:40;12.00;99.90
25342;DHT22;13298;48.792;9.154;2023-04-07T11:27:12;11.90;99.90
25342;DHT22;13298;48.792;9.154;2023-04-07T11:29:38;11.80;99.90
25342;DHT22;13298;48.792;9.154;2023-04-07T11:32:04;11.60;99.90
25342;DHT22;13298;48.792;9.154;2023-04-07T11:34:39;11.50;99.90
25342;DHT22;13298;48.792;9.154;2023-04-07T11:37:24;11.30;99.90
25342;DHT22;13298;48.792;9.154;2023-04-07T11:39:55;11.20;99.90
25342;DHT22;13298;48.792;9.154;2023-04-07T11:42:33;11.00;99.90
25342;DHT22;13298;48.792;9.154;2023-04-07T11:44:59;10.80;99.90
25342;DHT22;13298;48.792;9.154;2023-04-07T11:47:35;10.60;99.90
25342;DHT22;13298;48.792;9.154;2023-04-07T11:50:02;10.40;99.90
25342;DHT22;13298;48.792;9.154;2023-04-07T11:52:28;10.30;99.90
25342;DHT22;13298;48.792;9.154;2023-04-07T11:55:05;10.10;99.90
25342;DHT22;13298;48.792;9.154;2023-04-07T11:57:31;9.80;99.90
25342;DHT22;13298;48.792;9.154;2023-04-07T12:00:10;9.60;99.90
25342;DHT22;13298;48.792;9.154;2023-04-07T12:02:37;9.40;99.90
25342;DHT22;13298;48.792;9.154;2023-04-07T12:05:03;9.20;99.90
25342;DHT22;13298;48.792;9.154;2023-04-07T12:07:30;9.00;99.90
25342;DHT22;13298;48.792;9.154;2023-04-07T12:09:55;8.80;99.90
25342;DHT22;13298;48.792;9.154;2023-04-07T12:12:27;8.70;99.90
25342;DHT22;13298;48.792;9.154;2023-04-07T12:14:55;8.70;99.90
25342;DHT22;13298;48.792;9.154;2023-04-07T12:17:24;8.70;99.90
25342;DHT22;13298;48.792;9.154;2023-04-07T12:19:51;8.80;99.90
25342;DHT22;13298;48.792;9.154;2023-04-07T12:22:18;9.00;99.90
25342;DHT22;13298;48.792;9.154;2023-04-07T12:24:44;9.10;99.90
25342;DHT22;13298;48.792;9.154;2023-04-07T12:27:10;9.10;99.90
25342;DHT22;13298;48.792;9.154;2023-04-07T12:29:36;9.30;99.90
25342;DHT22;13298;48.792;9.154;2023-04-07T12:32:03;9.40;99.90
25342;DHT22;13298;48.792;9.154;2023-04-07T12:34:29;9.50;99.90
25342;DHT22;13298;48.792;9.154;2023-04-07T12:36:55;9.70;99.90
25342;DHT22;13298;48.792;9.154;2023-04-07T12:39:21;9.80;99.90
25342;DHT22;13298;48.792;9.154;2023-04-07T12:41:46;10.00;99.90
25342;DHT22;13298;48.792;9.154;2023-04-07T12:44:14;10.00;99.90
25342;DHT22;13298;48.792;9.154;2023-04-07T12:46:40;10.10;99.90
25342;DHT22;13298;48.792;9.154;2023-04-07T12:49:07;10.20;99.90
25342;DHT22;13298;48.792;9.154;2023-04-07T12:51:33;10.20;99.90
25342;DHT22;13298;48.792;9.154;2023-04-07T12:53:59;10.30;99.90
25342;DHT22;13298;48.792;9.154;2023-04-07T12:56:28;10.40;99.90
25342;DHT22;13298;48.792;9.154;2023-04-07T12:58:53;10.50;99.90
25342;DHT22;13298;48.792;9.154;2023-04-07T13:01:20;10.60;99.90
25342;DHT22;13298;48.792;9.154;2023-04-07T13:03:46;10.60;99.90
25342;DHT22;13298;48.792;9.154;2023-04-07T13:06:12;10.70;99.90
25342;DHT22;13298;48.792;9.154;2023-04-07T13:08:39;10.70;99.90
25342;DHT22;13298;48.792;9.154;2023-04-07T13:11:05;10.80;99.90
25342;DHT22;13298;48.792;9.154;2023-04-07T13:13:31;10.90;99.90
25342;DHT22;13298;48.792;9.154;2023-04-07T13:15:57;11.00;99.90
25342;DHT22;13298;48.792;9.154;2023-04-07T13:18:23;10.90;99.90
25342;DHT22;13298;48.792;9.154;2023-04-07T13:20:49;10.90;99.90
25342;DHT22;13298;48.792;9.154;2023-04-07T13:23:14;10.80;99.90
25342;DHT22;13298;48.792;9.154;2023-04-07T13:25:40;10.60;99.90
25342;DHT22;13298;48.792;9.154;2023-04-07T13:28:06;10.60;99.90
25342;DHT22;13298;48.792;9.154;2023-04-07T13:30:32;10.40;99.90
25342;DHT22;13298;48.792;9.154;2023-04-07T13:32:58;10.40;99.90
25342;DHT22;13298;48.792;9.154;2023-04-07T13:35:24;10.30;99.90
25342;DHT22;13298;48.792;9.154;2023-04-07T13:37:49;10.20;99.90
25342;DHT22;13298;48.792;9.154;2023-04-07T13:40:15;10.20;99.90
25342;DHT22;13298;48.792;9.154;2023-04-07T13:42:41;10.20;99.90
25342;DHT22;13298;48.792;9.154;2023-04-07T13:45:08;10.10;99.90
25342;DHT22;13298;48.792;9.154;2023-04-07T13:47:34;10.10;99.90
25342;DHT22;13298;48.792;9.154;2023-04-07T13:50:00;10.20;99.90
25342;DHT22;13298;48.792;9.154;2023-04-07T13:52:27;10.30;99.90
25342;DHT22;13298;48.792;9.154;2023-04-07T13:54:53;10.30;99.90
25342;DHT22;13298;48.792;9.154;2023-04-07T13:57:19;10.40;99.90
25342;DHT22;13298;48.792;9.154;2023-04-07T13:59:49;10.50;99.90
25342;DHT22;13298;48.792;9.154;2023-04-07T14:02:18;10.50;99.90
25342;DHT22;13298;48.792;9.154;2023-04-07T14:04:44;10.50;99.90
25342;DHT22;13298;48.792;9.154;2023-04-07T14:07:11;10.50;99.90
25342;DHT22;13298;48.792;9.154;2023-04-07T14:09:36;10.50;99.90
25342;DHT22;13298;48.792;9.154;2023-04-07T14:12:03;10.70;99.90
25342;DHT22;13298;48.792;9.154;2023-04-07T14:14:29;10.80;99.90
25342;DHT22;13298;48.792;9.154;2023-04-07T14:16:55;10.80;99.90
25342;DHT22;13298;48.792;9.154;2023-04-07T14:19:21;10.80;99.90
25342;DHT22;13298;48.792;9.154;2023-04-07T14:21:48;10.90;99.90
25342;DHT22;13298;48.792;9.154;2023-04-07T14:24:14;10.90;99.90
25342;DHT22;13298;48.792;9.154;2023-04-07T14:26:42;11.00;99.90
25342;DHT22;13298;48.792;9.154;2023-04-07T14:29:08;11.00;99.90
25342;DHT22;13298;48.792;9.154;2023-04-07T14:31:34;11.10;99.90
25342;DHT22;13298;48.792;9.154;2023-04-07T14:33:59;11.20;99.90
25342;DHT22;13298;48.792;9.154;2023-04-07T14:36:25;11.20;99.90
25342;DHT22;13298;48.792;9.154;2023-04-07T14:38:51;11.20;99.90
25342;DHT22;13298;48.792;9.154;2023-04-07T14:41:18;11.20;99.90
25342;DHT22;13298;48.792;9.154;2023-04-07T14:43:44;11.20;99.90
25342;DHT22;13298;48.792;9.154;2023-04-07T14:46:11;11.10;99.90
25342;DHT22;13298;48.792;9.154;2023-04-07T14:48:39;11.10;99.90
25342;DHT22;13298;48.792;9.154;2023-04-07T14:51:12;11.10;99.90
25342;DHT22;13298;48.792;9.154;2023-04-07T14:53:39;11.20;99.90
25342;DHT22;13298;48.792;9.154;2023-04-07T14:56:06;11.30;99.90
25342;DHT22;13298;48.792;9.154;2023-04-07T14:58:32;11.30;99.90
25342;DHT22;13298;48.792;9.154;2023-04-07T15:00:58;11.30;99.90
25342;DHT22;13298;48.792;9.154;2023-04-07T15:03:23;11.40;99.90
25342;DHT22;13298;48.792;9.154;2023-04-07T15:05:49;11.50;99.90
25342;DHT22;13298;48.792;9.154;2023-04-07T15:08:15;11.70;99.90
25342;DHT22;13298;48.792;9.154;2023-04-07T15:10:40;11.70;99.90
25342;DHT22;13298;48.792;9.154;2023-04-07T15:13:06;11.90;99.90
25342;DHT22;13298;48.792;9.154;2023-04-07T15:15:32;11.90;99.90
25342;DHT22;13298;48.792;9.154;2023-04-07T15:17:58;11.90;99.90
25342;DHT22;13298;48.792;9.154;2023-04-07T15:20:23;11.90;99.90
25342;DHT22;13298;48.792;9.154;2023-04-07T15:22:49;12.00;99.90
25342;DHT22;13298;48.792;9.154;2023-04-07T15:25:15;11.90;99.90
25342;DHT22;13298;48.792;9.154;2023-04-07T15:27:41;12.00;99.90
25342;DHT22;13298;48.792;9.154;2023-04-07T15:30:07;12.10;99.90
25342;DHT22;13298;48.792;9.154;2023-04-07T15:32:33;12.20;99.90
25342;DHT22;13298;48.792;9.154;2023-04-07T15:34:58;12.10;99.90
25342;DHT22;13298;48.792;9.154;2023-04-07T15:37:25;12.20;99.90
25342;DHT22;13298;48.792;9.154;2023-04-07T15:39:50;12.30;99.90
25342;DHT22;13298;48.792;9.154;2023-04-07T15:42:16;12.40;99.90
25342;DHT22;13298;48.792;9.154;2023-04-07T15:44:42;12.50;99.90
25342;DHT22;13298;48.792;9.154;2023-04-07T15:47:08;12.50;99.90
25342;DHT22;13298;48.792;9.154;2023-04-07T15:49:34;12.60;99.90
25342;DHT22;13298;48.792;9.154;2023-04-07T15:52:03;12.50;99.90
25342;DHT22;13298;48.792;9.154;2023-04-07T15:54:31;12.60;99.90
25342;DHT22;13298;48.792;9.154;2023-04-07T15:56:57;12.50;99.90
25342;DHT22;13298;48.792;9.154;2023-04-07T15:59:22;12.60;99.90